sensor_id;sensor_type;location;lat;lon;timestamp;pressure;altitude;pressure_sealevel;temperature;humidity
55757;BME280;41676;44.610;44.078;2023-05-23T00:00:12;99983.59;;;15.61;100.00
55757;BME280;41676;44.610;44.078;2023-05-23T00:05:13;100019.25;;;15.68;100.00
55757;BME280;41676;44.610;44.078;2023-05-23T00:10:17;100012.44;;;15.66;100.00
55757;BME280;41676;44.610;44.078;2023-05-23T00:15:18;99974.13;;;15.52;100.00
55757;BME280;41676;44.610;44.078;2023-05-23T00:20:19;99974.53;;;15.62;100.00
55757;BME280;41676;44.610;44.078;2023-05-23T00:25:20;99968.00;;;15.45;100.00
55757;BME280;41676;44.610;44.078;2023-05-23T00:30:27;99986.50;;;15.53;100.00
55757;BME280;41676;44.610;44.078;2023-05-23T00:35:28;99923.78;;;15.09;100.00
55757;BME280;41676;44.610;44.078;2023-05-23T00:40:28;99818.91;;;14.41;100.00
55757;BME280;41676;44.610;44.078;2023-05-23T00:45:29;100012.44;;;15.66;100.00
55757;BME280;41676;44.610;44.078;2023-05-23T00:50:30;100017.16;;;15.64;100.00
55757;BME280;41676;44.610;44.078;2023-05-23T00:55:31;100007.72;;;15.68;100.00
55757;BME280;41676;44.610;44.078;2023-05-23T01:00:32;100023.38;;;15.71;100.00
55757;BME280;41676;44.610;44.078;2023-05-23T01:05:34;99945.19;;;15.29;100.00
55757;BME280;41676;44.610;44.078;2023-05-23T01:10:35;99972.91;;;15.55;100.00
55757;BME280;41676;44.610;44.078;2023-05-23T01:21:07;99986.50;;;15.60;100.00
55757;BME280;41676;44.610;44.078;2023-05-23T01:31:33;99992.03;;;15.58;100.00
55757;BME280;41676;44.610;44.078;2023-05-23T01:36:39;99916.97;;;15.13;100.00
55757;BME280;41676;44.610;44.078;2023-05-23T01:41:41;99969.84;;;15.44;100.00
55757;BME280;41676;44.610;44.078;2023-05-23T01:46:43;99976.03;;;15.38;100.00
55757;BME280;41676;44.610;44.078;2023-05-23T01:51:44;100003.19;;;15.48;100.00
55757;BME280;41676;44.610;44.078;2023-05-23T01:56:47;100036.53;;;15.66;100.00
55757;BME280;41676;44.610;44.078;2023-05-23T02:01:48;100030.34;;;15.65;100.00
55757;BME280;41676;44.610;44.078;2023-05-23T02:06:49;100022.94;;;15.67;100.00
55757;BME280;41676;44.610;44.078;2023-05-23T02:11:49;99968.44;;;15.35;100.00
55757;BME280;41676;44.610;44.078;2023-05-23T02:16:50;100010.38;;;15.61;100.00
55757;BME280;41676;44.610;44.078;2023-05-23T02:21:52;100051.16;;;15.83;100.00
55757;BME280;41676;44.610;44.078;2023-05-23T02:26:52;100051.75;;;15.85;100.00
55757;BME280;41676;44.610;44.078;2023-05-23T02:31:53;100034.88;;;15.78;100.00
55757;BME280;41676;44.610;44.078;2023-05-23T02:36:54;100022.28;;;15.85;100.00
55757;BME280;41676;44.610;44.078;2023-05-23T02:41:55;99999.06;;;15.59;100.00
55757;BME280;41676;44.610;44.078;2023-05-23T02:46:56;100011.00;;;15.70;100.00
55757;BME280;41676;44.610;44.078;2023-05-23T02:51:56;100016.50;;;15.88;100.00
55757;BME280;41676;44.610;44.078;2023-05-23T02:56:57;100025.59;;;15.87;100.00
55757;BME280;41676;44.610;44.078;2023-05-23T03:01:58;100021.28;;;15.86;100.00
55757;BME280;41676;44.610;44.078;2023-05-23T03:06:59;100002.75;;;15.78;100.00
55757;BME280;41676;44.610;44.078;2023-05-23T03:12:00;100023.47;;;16.03;100.00
55757;BME280;41676;44.610;44.078;2023-05-23T03:17:01;100049.00;;;16.12;100.00
55757;BME280;41676;44.610;44.078;2023-05-23T03:22:03;100050.84;;;16.18;100.00
55757;BME280;41676;44.610;44.078;2023-05-23T03:27:04;100064.63;;;16.28;100.00
55757;BME280;41676;44.610;44.078;2023-05-23T03:32:05;100075.34;;;16.28;100.00
55757;BME280;41676;44.610;44.078;2023-05-23T03:37:06;100078.03;;;16.28;100.00
55757;BME280;41676;44.610;44.078;2023-05-23T03:42:07;100069.16;;;16.21;100.00
55757;BME280;41676;44.610;44.078;2023-05-23T03:47:08;100064.81;;;16.27;100.00
55757;BME280;41676;44.610;44.078;2023-05-23T03:52:09;100054.28;;;16.32;100.00
55757;BME280;41676;44.610;44.078;2023-05-23T03:57:10;100054.50;;;16.37;100.00
55757;BME280;41676;44.610;44.078;2023-05-23T04:02:11;100073.00;;;16.52;100.00
55757;BME280;41676;44.610;44.078;2023-05-23T04:07:12;100084.13;;;16.49;100.00
55757;BME280;41676;44.610;44.078;2023-05-23T04:12:15;100092.78;;;16.51;100.00
55757;BME280;41676;44.610;44.078;2023-05-23T04:17:15;100038.47;;;16.17;100.00
55757;BME280;41676;44.610;44.078;2023-05-23T04:22:16;100117.91;;;16.56;100.00
55757;BME280;41676;44.610;44.078;2023-05-23T04:27:17;100025.13;;;15.97;100.00
55757;BME280;41676;44.610;44.078;2023-05-23T04:32:19;100118.53;;;16.58;100.00
55757;BME280;41676;44.610;44.078;2023-05-23T04:37:22;100100.16;;;16.62;100.00
55757;BME280;41676;44.610;44.078;2023-05-23T04:42:25;100119.03;;;16.94;100.00
55757;BME280;41676;44.610;44.078;2023-05-23T04:47:26;100039.38;;;16.49;100.00
55757;BME280;41676;44.610;44.078;2023-05-23T04:52:28;100125.38;;;16.99;100.00
55757;BME280;41676;44.610;44.078;2023-05-23T04:57:30;100110.00;;;17.13;100.00
55757;BME280;41676;44.610;44.078;2023-05-23T05:02:30;100087.84;;;17.24;100.00
55757;BME280;41676;44.610;44.078;2023-05-23T05:07:34;100102.69;;;17.52;100.00
55757;BME280;41676;44.610;44.078;2023-05-23T05:12:35;100109.84;;;17.90;100.00
55757;BME280;41676;44.610;44.078;2023-05-23T05:17:36;100101.78;;;18.08;100.00
55757;BME280;41676;44.610;44.078;2023-05-23T05:22:37;99983.94;;;17.50;100.00
55757;BME280;41676;44.610;44.078;2023-05-23T05:27:42;100103.19;;;18.47;100.00
55757;BME280;41676;44.610;44.078;2023-05-23T05:32:43;100102.66;;;18.57;100.00
55757;BME280;41676;44.610;44.078;2023-05-23T05:37:45;100078.84;;;18.42;100.00
55757;BME280;41676;44.610;44.078;2023-05-23T05:42:46;100110.31;;;18.79;100.00
55757;BME280;41676;44.610;44.078;2023-05-23T05:47:47;100032.34;;;18.54;100.00
55757;BME280;41676;44.610;44.078;2023-05-23T05:52:48;100091.31;;;19.04;100.00
55757;BME280;41676;44.610;44.078;2023-05-23T05:57:48;100086.31;;;19.19;100.00
55757;BME280;41676;44.610;44.078;2023-05-23T06:02:49;100090.13;;;19.42;98.57
55757;BME280;41676;44.610;44.078;2023-05-23T06:07:56;100053.31;;;19.47;97.53
55757;BME280;41676;44.610;44.078;2023-05-23T06:12:57;100016.31;;;19.19;96.08
55757;BME280;41676;44.610;44.078;2023-05-23T06:17:59;100049.38;;;19.73;95.94
55757;BME280;41676;44.610;44.078;2023-05-23T06:22:59;100058.00;;;20.11;94.55
55757;BME280;41676;44.610;44.078;2023-05-23T06:28:01;100048.91;;;20.69;92.90
55757;BME280;41676;44.610;44.078;2023-05-23T06:33:01;100029.66;;;20.77;90.09
55757;BME280;41676;44.610;44.078;2023-05-23T06:38:02;99986.66;;;20.30;90.16
55757;BME280;41676;44.610;44.078;2023-05-23T06:43:03;100062.50;;;21.70;88.89
55757;BME280;41676;44.610;44.078;2023-05-23T06:48:05;99963.03;;;21.50;86.64
55757;BME280;41676;44.610;44.078;2023-05-23T06:53:06;100081.75;;;22.29;85.99
55757;BME280;41676;44.610;44.078;2023-05-23T06:58:07;100088.97;;;22.46;84.07
55757;BME280;41676;44.610;44.078;2023-05-23T07:03:08;100074.88;;;22.44;82.28
55757;BME280;41676;44.610;44.078;2023-05-23T07:08:09;100077.41;;;22.77;83.27
55757;BME280;41676;44.610;44.078;2023-05-23T07:13:12;100001.16;;;22.15;82.39
55757;BME280;41676;44.610;44.078;2023-05-23T07:18:13;100050.16;;;22.89;82.99
55757;BME280;41676;44.610;44.078;2023-05-23T07:23:14;100067.41;;;23.05;80.79
55757;BME280;41676;44.610;44.078;2023-05-23T07:28:16;100058.19;;;22.79;80.45
55757;BME280;41676;44.610;44.078;2023-05-23T07:33:18;100039.16;;;22.96;80.20
55757;BME280;41676;44.610;44.078;2023-05-23T07:38:19;99974.63;;;22.93;79.37
55757;BME280;41676;44.610;44.078;2023-05-23T07:43:20;99988.59;;;23.49;78.61
55757;BME280;41676;44.610;44.078;2023-05-23T07:48:21;100052.94;;;24.06;77.44
55757;BME280;41676;44.610;44.078;2023-05-23T07:53:22;100047.63;;;24.37;76.37
55757;BME280;41676;44.610;44.078;2023-05-23T07:58:23;100021.91;;;24.45;76.25
55757;BME280;41676;44.610;44.078;2023-05-23T08:03:24;100027.94;;;24.62;74.79
55757;BME280;41676;44.610;44.078;2023-05-23T08:08:25;100001.63;;;24.83;75.56
55757;BME280;41676;44.610;44.078;2023-05-23T08:13:25;99962.72;;;24.52;74.23
55757;BME280;41676;44.610;44.078;2023-05-23T08:18:26;100000.53;;;24.89;73.99
55757;BME280;41676;44.610;44.078;2023-05-23T08:23:27;100006.22;;;25.44;74.45
55757;BME280;41676;44.610;44.078;2023-05-23T08:28:28;99939.13;;;25.19;72.25
55757;BME280;41676;44.610;44.078;2023-05-23T08:33:29;99980.03;;;25.68;71.04
55757;BME280;41676;44.610;44.078;2023-05-23T08:38:30;99983.53;;;25.84;72.20
55757;BME280;41676;44.610;44.078;2023-05-23T08:43:31;99974.84;;;25.77;71.98
55757;BME280;41676;44.610;44.078;2023-05-23T08:48:33;99959.53;;;25.96;70.08
55757;BME280;41676;44.610;44.078;2023-05-23T08:53:40;99938.91;;;25.80;70.27
55757;BME280;41676;44.610;44.078;2023-05-23T08:58:42;99928.38;;;25.63;69.89
55757;BME280;41676;44.610;44.078;2023-05-23T09:03:43;99901.75;;;25.55;70.57
55757;BME280;41676;44.610;44.078;2023-05-23T09:08:44;99871.00;;;25.55;69.87
55757;BME280;41676;44.610;44.078;2023-05-23T09:13:45;99944.53;;;26.04;68.44
55757;BME280;41676;44.610;44.078;2023-05-23T09:18:47;99908.47;;;26.28;67.72
55757;BME280;41676;44.610;44.078;2023-05-23T09:23:49;99897.25;;;26.34;67.47
55757;BME280;41676;44.610;44.078;2023-05-23T09:28:50;99918.81;;;26.70;66.54
55757;BME280;41676;44.610;44.078;2023-05-23T09:33:50;99889.88;;;26.74;65.04
55757;BME280;41676;44.610;44.078;2023-05-23T09:38:51;99901.34;;;27.00;62.66
55757;BME280;41676;44.610;44.078;2023-05-23T09:43:53;99824.91;;;26.86;62.86
55757;BME280;41676;44.610;44.078;2023-05-23T09:48:54;99907.44;;;27.21;62.39
55757;BME280;41676;44.610;44.078;2023-05-23T09:53:55;99851.16;;;26.77;62.05
55757;BME280;41676;44.610;44.078;2023-05-23T09:58:57;99897.47;;;27.36;61.07
55757;BME280;41676;44.610;44.078;2023-05-23T10:03:58;99906.75;;;27.35;60.99
55757;BME280;41676;44.610;44.078;2023-05-23T10:09:04;99913.28;;;27.58;58.09
55757;BME280;41676;44.610;44.078;2023-05-23T10:14:09;99913.31;;;28.01;59.24
55757;BME280;41676;44.610;44.078;2023-05-23T10:24:17;99773.06;;;27.59;58.21
55757;BME280;41676;44.610;44.078;2023-05-23T10:29:20;99849.56;;;28.10;60.17
55757;BME280;41676;44.610;44.078;2023-05-23T10:34:26;99877.66;;;28.30;59.05
55757;BME280;41676;44.610;44.078;2023-05-23T10:40:06;99882.22;;;28.34;57.05
55757;BME280;41676;44.610;44.078;2023-05-23T10:45:19;99882.03;;;28.31;54.43
55757;BME280;41676;44.610;44.078;2023-05-23T10:50:34;99894.81;;;28.16;56.19
55757;BME280;41676;44.610;44.078;2023-05-23T10:55:36;99904.00;;;28.20;56.52
55757;BME280;41676;44.610;44.078;2023-05-23T11:00:37;99901.28;;;28.20;56.03
55757;BME280;41676;44.610;44.078;2023-05-23T11:05:46;99894.13;;;28.43;54.93
55757;BME280;41676;44.610;44.078;2023-05-23T11:11:02;99886.66;;;28.49;53.92
55757;BME280;41676;44.610;44.078;2023-05-23T11:16:25;99883.88;;;27.97;58.10
55757;BME280;41676;44.610;44.078;2023-05-23T11:21:28;99869.03;;;27.85;57.68
55757;BME280;41676;44.610;44.078;2023-05-23T11:26:30;99878.47;;;28.11;57.64
55757;BME280;41676;44.610;44.078;2023-05-23T11:31:36;99862.16;;;27.68;56.26
55757;BME280;41676;44.610;44.078;2023-05-23T11:36:39;99885.69;;;27.64;57.66
55757;BME280;41676;44.610;44.078;2023-05-23T11:41:57;99879.22;;;28.17;55.49
55757;BME280;41676;44.610;44.078;2023-05-23T11:47:05;99785.31;;;27.80;55.39
55757;BME280;41676;44.610;44.078;2023-05-23T11:52:07;99820.69;;;27.66;56.02
55757;BME280;41676;44.610;44.078;2023-05-23T11:57:08;99890.16;;;28.17;55.77
55757;BME280;41676;44.610;44.078;2023-05-23T12:02:09;99884.75;;;28.50;55.23
55757;BME280;41676;44.610;44.078;2023-05-23T12:07:10;99869.38;;;28.35;55.30
55757;BME280;41676;44.610;44.078;2023-05-23T12:12:14;99888.44;;;28.40;54.75
55757;BME280;41676;44.610;44.078;2023-05-23T12:17:16;99879.28;;;28.31;55.57
55757;BME280;41676;44.610;44.078;2023-05-23T12:22:22;99828.06;;;28.22;54.10
55757;BME280;41676;44.610;44.078;2023-05-23T12:27:34;99896.22;;;28.65;54.72
55757;BME280;41676;44.610;44.078;2023-05-23T12:32:39;99878.25;;;28.27;53.02
55757;BME280;41676;44.610;44.078;2023-05-23T12:37:44;99892.81;;;28.41;54.67
55757;BME280;41676;44.610;44.078;2023-05-23T12:42:57;99845.81;;;28.06;53.47
55757;BME280;41676;44.610;44.078;2023-05-23T12:47:57;99878.75;;;28.29;52.54
55757;BME280;41676;44.610;44.078;2023-05-23T12:52:58;99882.41;;;28.43;52.72
55757;BME280;41676;44.610;44.078;2023-05-23T12:57:59;99873.16;;;28.20;52.35
55757;BME280;41676;44.610;44.078;2023-05-23T13:03:00;99805.22;;;27.81;52.24
55757;BME280;41676;44.610;44.078;2023-05-23T13:08:01;99874.22;;;28.24;52.71
55757;BME280;41676;44.610;44.078;2023-05-23T13:13:03;99804.72;;;27.79;52.79
55757;BME280;41676;44.610;44.078;2023-05-23T13:18:04;99868.84;;;28.33;52.69
55757;BME280;41676;44.610;44.078;2023-05-23T13:23:05;99833.34;;;28.00;52.63
55757;BME280;41676;44.610;44.078;2023-05-23T13:28:06;99862.97;;;28.26;52.19
55757;BME280;41676;44.610;44.078;2023-05-23T13:33:07;99852.81;;;28.12;51.22
55757;BME280;41676;44.610;44.078;2023-05-23T13:38:07;99797.34;;;27.79;52.17
55757;BME280;41676;44.610;44.078;2023-05-23T13:43:08;99794.31;;;27.81;51.26
55757;BME280;41676;44.610;44.078;2023-05-23T13:48:09;99840.69;;;28.18;52.05
55757;BME280;41676;44.610;44.078;2023-05-23T13:53:10;99805.56;;;28.12;51.72
55757;BME280;41676;44.610;44.078;2023-05-23T13:58:16;99839.19;;;28.26;50.87
55757;BME280;41676;44.610;44.078;2023-05-23T14:03:16;99834.53;;;28.27;50.68
55757;BME280;41676;44.610;44.078;2023-05-23T14:08:18;99800.66;;;27.95;51.14
55757;BME280;41676;44.610;44.078;2023-05-23T14:13:19;99835.03;;;27.96;51.62
55757;BME280;41676;44.610;44.078;2023-05-23T14:18:21;99822.19;;;27.96;51.61
55757;BME280;41676;44.610;44.078;2023-05-23T14:23:22;99792.91;;;27.83;51.93
55757;BME280;41676;44.610;44.078;2023-05-23T14:28:23;99798.00;;;27.90;51.62
55757;BME280;41676;44.610;44.078;2023-05-23T14:33:24;99801.31;;;27.87;51.78
55757;BME280;41676;44.610;44.078;2023-05-23T14:38:25;99812.66;;;27.94;51.90
55757;BME280;41676;44.610;44.078;2023-05-23T14:43:26;99799.19;;;27.84;51.68
55757;BME280;41676;44.610;44.078;2023-05-23T14:48:27;99801.63;;;27.85;51.81
55757;BME280;41676;44.610;44.078;2023-05-23T14:53:28;99792.22;;;27.72;51.68
55757;BME280;41676;44.610;44.078;2023-05-23T14:58:28;99767.66;;;27.53;52.01
55757;BME280;41676;44.610;44.078;2023-05-23T15:03:29;99756.91;;;27.43;51.95
55757;BME280;41676;44.610;44.078;2023-05-23T15:08:30;99768.69;;;27.58;52.97
55757;BME280;41676;44.610;44.078;2023-05-23T15:13:31;99759.91;;;27.42;52.59
55757;BME280;41676;44.610;44.078;2023-05-23T15:18:32;99746.66;;;27.11;53.20
55757;BME280;41676;44.610;44.078;2023-05-23T15:23:32;99695.09;;;26.72;52.81
55757;BME280;41676;44.610;44.078;2023-05-23T15:28:33;99742.50;;;26.95;53.22
55757;BME280;41676;44.610;44.078;2023-05-23T15:33:34;99759.22;;;26.88;53.86
55757;BME280;41676;44.610;44.078;2023-05-23T15:38:35;99777.75;;;26.86;54.07
55757;BME280;41676;44.610;44.078;2023-05-23T15:43:36;99716.44;;;26.35;54.49
55757;BME280;41676;44.610;44.078;2023-05-23T15:48:36;99774.25;;;26.56;54.99
55757;BME280;41676;44.610;44.078;2023-05-23T15:53:37;99770.56;;;26.42;55.68
55757;BME280;41676;44.610;44.078;2023-05-23T15:58:38;99769.38;;;26.24;56.31
55757;BME280;41676;44.610;44.078;2023-05-23T16:03:39;99784.97;;;26.13;57.25
55757;BME280;41676;44.610;44.078;2023-05-23T16:08:39;99781.56;;;25.98;58.01
55757;BME280;41676;44.610;44.078;2023-05-23T16:13:40;99779.78;;;25.83;58.93
55757;BME280;41676;44.610;44.078;2023-05-23T16:18:41;99794.53;;;25.66;59.59
55757;BME280;41676;44.610;44.078;2023-05-23T16:23:42;99738.53;;;25.05;60.57
55757;BME280;41676;44.610;44.078;2023-05-23T16:28:43;99801.31;;;25.19;61.52
55757;BME280;41676;44.610;44.078;2023-05-23T16:33:44;99786.44;;;24.86;62.26
55757;BME280;41676;44.610;44.078;2023-05-23T16:38:45;99812.50;;;24.82;63.44
55757;BME280;41676;44.610;44.078;2023-05-23T16:43:46;99814.72;;;24.65;64.31
55757;BME280;41676;44.610;44.078;2023-05-23T16:48:47;99755.56;;;23.95;65.14
55757;BME280;41676;44.610;44.078;2023-05-23T16:53:48;99846.75;;;24.27;65.97
55757;BME280;41676;44.610;44.078;2023-05-23T16:58:49;99857.03;;;24.09;66.85
55757;BME280;41676;44.610;44.078;2023-05-23T17:03:50;99763.84;;;23.37;67.95
55757;BME280;41676;44.610;44.078;2023-05-23T17:08:51;99850.97;;;23.72;68.82
55757;BME280;41676;44.610;44.078;2023-05-23T17:13:52;99857.13;;;23.57;69.98
55757;BME280;41676;44.610;44.078;2023-05-23T17:18:52;99841.88;;;23.35;70.75
55757;BME280;41676;44.610;44.078;2023-05-23T17:23:53;99841.53;;;23.16;71.41
55757;BME280;41676;44.610;44.078;2023-05-23T17:28:54;99784.63;;;22.69;72.09
55757;BME280;41676;44.610;44.078;2023-05-23T17:33:55;99894.59;;;23.12;73.13
55757;BME280;41676;44.610;44.078;2023-05-23T17:38:55;99883.59;;;22.87;73.70
55757;BME280;41676;44.610;44.078;2023-05-23T17:43:56;99879.22;;;22.81;74.12
55757;BME280;41676;44.610;44.078;2023-05-23T17:48:57;99759.47;;;21.99;74.18
55757;BME280;41676;44.610;44.078;2023-05-23T17:53:58;99841.00;;;22.40;75.12
55757;BME280;41676;44.610;44.078;2023-05-23T17:59:01;99891.47;;;22.56;75.89
55757;BME280;41676;44.610;44.078;2023-05-23T18:04:03;99786.41;;;21.88;75.90
55757;BME280;41676;44.610;44.078;2023-05-23T18:09:04;99892.00;;;22.53;76.48
55757;BME280;41676;44.610;44.078;2023-05-23T18:14:04;99887.50;;;22.37;77.00
55757;BME280;41676;44.610;44.078;2023-05-23T18:19:06;99871.56;;;22.13;77.83
55757;BME280;41676;44.610;44.078;2023-05-23T18:24:07;99894.41;;;22.22;77.55
55757;BME280;41676;44.610;44.078;2023-05-23T18:29:11;99755.56;;;21.35;77.12
55757;BME280;41676;44.610;44.078;2023-05-23T18:34:12;99888.69;;;22.19;76.74
55757;BME280;41676;44.610;44.078;2023-05-23T18:39:14;99860.38;;;22.04;76.98
55757;BME280;41676;44.610;44.078;2023-05-23T18:44:15;99781.22;;;21.55;76.72
55757;BME280;41676;44.610;44.078;2023-05-23T18:49:17;99855.19;;;21.98;76.78
55757;BME280;41676;44.610;44.078;2023-05-23T18:54:18;99872.44;;;21.92;77.24
55757;BME280;41676;44.610;44.078;2023-05-23T18:59:18;99804.56;;;21.39;77.41
55757;BME280;41676;44.610;44.078;2023-05-23T19:04:20;99810.09;;;21.32;78.00
55757;BME280;41676;44.610;44.078;2023-05-23T19:09:21;99861.22;;;21.56;78.37
55757;BME280;41676;44.610;44.078;2023-05-23T19:14:22;99872.44;;;21.48;78.85
55757;BME280;41676;44.610;44.078;2023-05-23T19:19:23;99866.31;;;21.35;79.20
55757;BME280;41676;44.610;44.078;2023-05-23T19:24:24;99827.41;;;20.92;79.17
55757;BME280;41676;44.610;44.078;2023-05-23T19:29:24;99897.22;;;21.23;79.58
55757;BME280;41676;44.610;44.078;2023-05-23T19:34:25;99904.22;;;21.18;79.58
55757;BME280;41676;44.610;44.078;2023-05-23T19:39:26;99911.25;;;21.03;79.96
55757;BME280;41676;44.610;44.078;2023-05-23T19:44:27;99828.25;;;20.42;80.15
55757;BME280;41676;44.610;44.078;2023-05-23T19:49:28;99925.75;;;20.96;80.15
55757;BME280;41676;44.610;44.078;2023-05-23T19:54:29;99847.69;;;20.44;80.34
55757;BME280;41676;44.610;44.078;2023-05-23T19:59:30;99857.50;;;20.34;80.83
55757;BME280;41676;44.610;44.078;2023-05-23T20:04:30;99933.44;;;20.71;80.97
55757;BME280;41676;44.610;44.078;2023-05-23T20:09:31;99945.72;;;20.62;81.19
55757;BME280;41676;44.610;44.078;2023-05-23T20:14:32;99936.47;;;20.46;81.68
55757;BME280;41676;44.610;44.078;2023-05-23T20:19:33;99958.41;;;20.49;81.92
55757;BME280;41676;44.610;44.078;2023-05-23T20:24:34;99936.63;;;20.39;82.17
55757;BME280;41676;44.610;44.078;2023-05-23T20:29:35;99934.00;;;20.27;82.50
55757;BME280;41676;44.610;44.078;2023-05-23T20:34:36;99925.78;;;20.05;83.00
55757;BME280;41676;44.610;44.078;2023-05-23T20:39:37;99928.84;;;19.97;83.42
55757;BME280;41676;44.610;44.078;2023-05-23T20:44:41;99931.34;;;19.87;84.00
55757;BME280;41676;44.610;44.078;2023-05-23T20:49:41;99920.13;;;19.78;84.52
55757;BME280;41676;44.610;44.078;2023-05-23T20:54:42;99905.84;;;19.78;84.94
55757;BME280;41676;44.610;44.078;2023-05-23T20:59:43;99885.72;;;19.69;85.31
55757;BME280;41676;44.610;44.078;2023-05-23T21:04:45;99898.22;;;19.75;85.32
55757;BME280;41676;44.610;44.078;2023-05-23T21:09:46;99910.31;;;19.72;85.32
55757;BME280;41676;44.610;44.078;2023-05-23T21:14:47;99928.22;;;19.78;85.62
55757;BME280;41676;44.610;44.078;2023-05-23T21:19:47;99909.38;;;19.67;86.10
55757;BME280;41676;44.610;44.078;2023-05-23T21:24:48;99878.78;;;19.61;86.58
55757;BME280;41676;44.610;44.078;2023-05-23T21:29:49;99794.34;;;19.15;86.84
55757;BME280;41676;44.610;44.078;2023-05-23T21:34:50;99886.75;;;19.68;87.35
55757;BME280;41676;44.610;44.078;2023-05-23T21:39:51;99928.91;;;19.62;87.51
55757;BME280;41676;44.610;44.078;2023-05-23T21:44:52;99942.03;;;19.70;88.24
55757;BME280;41676;44.610;44.078;2023-05-23T21:49:53;99934.91;;;19.52;89.12
55757;BME280;41676;44.610;44.078;2023-05-23T21:54:53;99923.09;;;19.42;89.54
55757;BME280;41676;44.610;44.078;2023-05-23T21:59:54;99927.31;;;19.37;90.44
55757;BME280;41676;44.610;44.078;2023-05-23T22:04:55;99943.00;;;19.41;90.40
55757;BME280;41676;44.610;44.078;2023-05-23T22:09:56;100004.00;;;19.58;90.34
55757;BME280;41676;44.610;44.078;2023-05-23T22:14:57;99993.22;;;19.58;90.63
55757;BME280;41676;44.610;44.078;2023-05-23T22:19:57;100005.88;;;19.46;91.43
55757;BME280;41676;44.610;44.078;2023-05-23T22:25:00;99983.75;;;19.32;91.53
55757;BME280;41676;44.610;44.078;2023-05-23T22:30:00;99983.75;;;19.09;92.19
55757;BME280;41676;44.610;44.078;2023-05-23T22:35:01;100007.59;;;19.05;93.08
55757;BME280;41676;44.610;44.078;2023-05-23T22:40:03;100007.75;;;19.10;93.17
55757;BME280;41676;44.610;44.078;2023-05-23T22:45:05;99985.81;;;18.83;93.58
55757;BME280;41676;44.610;44.078;2023-05-23T22:50:06;99934.13;;;18.51;94.37
55757;BME280;41676;44.610;44.078;2023-05-23T22:55:08;100040.97;;;19.04;94.65
55757;BME280;41676;44.610;44.078;2023-05-23T23:00:10;99969.25;;;18.68;94.51
55757;BME280;41676;44.610;44.078;2023-05-23T23:05:12;100037.22;;;19.05;94.96
55757;BME280;41676;44.610;44.078;2023-05-23T23:10:14;100051.50;;;18.94;95.82
55757;BME280;41676;44.610;44.078;2023-05-23T23:15:15;100072.69;;;19.02;96.39
55757;BME280;41676;44.610;44.078;2023-05-23T23:20:16;100088.63;;;19.04;96.55
55757;BME280;41676;44.610;44.078;2023-05-23T23:25:16;100101.38;;;18.97;97.06
55757;BME280;41676;44.610;44.078;2023-05-23T23:30:18;99994.34;;;18.20;97.85
55757;BME280;41676;44.610;44.078;2023-05-23T23:35:19;100030.97;;;18.33;98.14
55757;BME280;41676;44.610;44.078;2023-05-23T23:40:20;100102.59;;;18.82;98.54
55757;BME280;41676;44.610;44.078;2023-05-23T23:45:21;100099.41;;;18.74;98.87
55757;BME280;41676;44.610;44.078;2023-05-23T23:50:21;100097.41;;;18.81;98.78
55757;BME280;41676;44.610;44.078;2023-05-23T23:55:22;100056.97;;;18.39;98.91
